createdAt,value
2017-09-13T00:00:01.432Z,11.9
2017-09-13T00:01:03.509Z,11.9
2017-09-13T00:02:05.561Z,12
2017-09-13T00:03:07.615Z,11.9
2017-09-13T00:04:09.699Z,12
2017-09-13T00:05:12.127Z,12
2017-09-13T00:06:14.185Z,11.9
2017-09-13T00:07:16.276Z,11.9
2017-09-13T00:08:18.335Z,11.8
2017-09-13T00:09:20.459Z,11.9
2017-09-13T00:10:22.815Z,11.9
2017-09-13T00:11:24.903Z,11.9
2017-09-13T00:12:26.977Z,11.9
2017-09-13T00:13:29.088Z,11.9
2017-09-13T00:14:31.163Z,11.8
2017-09-13T00:15:33.537Z,11.8
2017-09-13T00:16:35.618Z,11.8
2017-09-13T00:17:37.712Z,11.7
2017-09-13T00:18:39.808Z,11.8
2017-09-13T00:19:41.894Z,11.7
2017-09-13T00:20:44.324Z,11.7
2017-09-13T00:21:46.427Z,11.7
2017-09-13T00:22:48.500Z,11.7
2017-09-13T00:23:50.792Z,11.8
2017-09-13T00:24:52.889Z,11.8
2017-09-13T00:25:55.232Z,11.8
2017-09-13T00:26:57.296Z,11.8
2017-09-13T00:28:00.777Z,11.8
2017-09-13T00:29:02.818Z,11.8
2017-09-13T00:30:04.867Z,11.8
2017-09-13T00:31:07.263Z,11.9
2017-09-13T00:32:09.350Z,11.8
2017-09-13T00:33:11.390Z,11.9
2017-09-13T00:34:13.463Z,11.9
2017-09-13T00:35:15.515Z,11.9
2017-09-13T00:36:17.896Z,11.9
2017-09-13T00:37:20.004Z,12
2017-09-13T00:38:22.040Z,12.1
2017-09-13T00:39:24.066Z,12
2017-09-13T00:40:26.121Z,12.1
2017-09-13T00:41:28.506Z,12.1
2017-09-13T00:42:30.642Z,12
2017-09-13T00:43:32.712Z,12
2017-09-13T00:44:34.765Z,12.1
2017-09-13T00:45:36.825Z,12.1
2017-09-13T00:46:39.208Z,12.1
2017-09-13T00:47:41.486Z,12.1
2017-09-13T00:48:43.555Z,12
2017-09-13T00:49:45.621Z,12.1
2017-09-13T00:50:47.674Z,12.1
2017-09-13T00:51:50.015Z,12.1
2017-09-13T00:52:52.302Z,12
2017-09-13T00:53:54.357Z,12
2017-09-13T00:54:56.416Z,11.9
2017-09-13T00:55:58.525Z,12
2017-09-13T00:57:01.019Z,12
2017-09-13T00:58:03.112Z,12
2017-09-13T00:59:05.145Z,12
2017-09-13T01:00:07.240Z,12.1
2017-09-13T01:01:09.290Z,12.1
2017-09-13T01:02:11.751Z,12
2017-09-13T01:03:13.861Z,12
2017-09-13T01:04:15.973Z,12
2017-09-13T01:05:18.050Z,11.9
2017-09-13T01:06:20.118Z,12
2017-09-13T01:07:22.481Z,12
2017-09-13T01:08:24.567Z,12
2017-09-13T01:09:26.627Z,12
2017-09-13T01:10:28.846Z,12
2017-09-13T01:11:30.940Z,12
2017-09-13T01:12:33.503Z,12
2017-09-13T01:13:35.557Z,11.9
2017-09-13T01:14:37.645Z,12
2017-09-13T01:15:39.736Z,12.1
2017-09-13T01:16:41.814Z,12
2017-09-13T01:17:44.263Z,11.9
2017-09-13T01:18:46.375Z,12
2017-09-13T01:19:48.496Z,12
2017-09-13T01:20:50.601Z,12
2017-09-13T01:21:52.688Z,12
2017-09-13T01:22:55.136Z,12
2017-09-13T01:23:57.238Z,12
2017-09-13T01:24:59.359Z,12.1
2017-09-13T01:26:01.475Z,12
2017-09-13T01:27:03.589Z,12
2017-09-13T01:28:06.009Z,12.1
2017-09-13T01:29:08.061Z,12
2017-09-13T01:30:10.159Z,12.1
2017-09-13T01:31:12.211Z,12
2017-09-13T01:32:14.275Z,12
2017-09-13T01:33:16.656Z,12.1
2017-09-13T01:34:18.792Z,12.1
2017-09-13T01:35:20.877Z,12.1
2017-09-13T01:36:22.938Z,12
2017-09-13T01:37:25.084Z,12
2017-09-13T01:38:27.571Z,12.1
2017-09-13T01:39:29.675Z,12
2017-09-13T01:40:31.776Z,12.1
2017-09-13T01:41:34.192Z,11.9
2017-09-13T01:42:36.657Z,12
2017-09-13T01:43:39.135Z,12
2017-09-13T01:44:41.356Z,12
2017-09-13T01:45:43.484Z,12.1
2017-09-13T01:46:45.554Z,12.1
2017-09-13T01:47:47.638Z,12.1
2017-09-13T01:48:50.117Z,12.2
2017-09-13T01:49:52.262Z,12.1
2017-09-13T01:50:54.373Z,12.1
2017-09-13T01:51:56.445Z,12.1
2017-09-13T01:52:58.547Z,12.3
2017-09-13T01:54:00.969Z,12.2
2017-09-13T01:55:03.097Z,12.2
2017-09-13T01:56:05.226Z,12.2
2017-09-13T01:57:07.342Z,12.3
2017-09-13T01:58:09.436Z,12.2
2017-09-13T01:59:11.909Z,12.2
2017-09-13T02:00:14.099Z,12.3
2017-09-13T02:01:16.189Z,12.3
2017-09-13T02:02:18.273Z,12.3
2017-09-13T02:03:20.400Z,12.3
2017-09-13T02:04:22.894Z,12.3
2017-09-13T02:05:25.070Z,12.2
2017-09-13T02:06:27.443Z,12.3
2017-09-13T02:07:29.539Z,12.3
2017-09-13T02:08:31.711Z,12.4
2017-09-13T02:09:34.160Z,12.4
2017-09-13T02:10:36.434Z,12.4
2017-09-13T02:11:38.594Z,12.4
2017-09-13T02:12:40.696Z,12.3
2017-09-13T02:13:42.840Z,12.3
2017-09-13T02:14:45.221Z,12.4
2017-09-13T02:15:47.313Z,12.3
2017-09-13T02:16:49.384Z,12.3
2017-09-13T02:17:51.435Z,12.2
2017-09-13T02:18:53.529Z,12.3
2017-09-13T02:19:55.901Z,12.3
2017-09-13T02:20:58.027Z,12.3
2017-09-13T02:22:00.038Z,12.3
2017-09-13T02:23:02.166Z,12.4
2017-09-13T02:24:04.295Z,12.4
2017-09-13T02:25:06.697Z,12.4
2017-09-13T02:26:08.838Z,12.4
2017-09-13T02:27:10.927Z,12.4
2017-09-13T02:28:13.091Z,12.4
2017-09-13T02:29:15.192Z,12.4
2017-09-13T02:30:17.777Z,12.5
2017-09-13T02:31:19.910Z,12.5
2017-09-13T02:32:22.034Z,12.4
2017-09-13T02:33:24.087Z,12.5
2017-09-13T02:34:26.218Z,12.5
2017-09-13T02:35:28.560Z,12.6
2017-09-13T02:36:30.690Z,12.6
2017-09-13T02:37:32.748Z,12.5
2017-09-13T02:38:34.854Z,12.5
2017-09-13T02:39:36.937Z,12.6
2017-09-13T02:40:39.485Z,12.6
2017-09-13T02:41:41.621Z,12.6
2017-09-13T02:42:43.733Z,12.6
2017-09-13T02:43:45.830Z,12.6
2017-09-13T02:44:47.975Z,12.6
2017-09-13T02:45:50.505Z,12.6
2017-09-13T02:46:52.568Z,12.6
2017-09-13T02:47:54.707Z,12.6
2017-09-13T02:48:56.762Z,12.7
2017-09-13T02:49:58.873Z,12.6
2017-09-13T02:51:01.382Z,12.7
2017-09-13T02:52:03.680Z,12.6
2017-09-13T02:53:05.780Z,12.7
2017-09-13T02:54:07.862Z,12.7
2017-09-13T02:55:09.997Z,12.8
2017-09-13T02:56:12.506Z,12.7
2017-09-13T02:57:14.680Z,12.7
2017-09-13T02:58:16.845Z,12.6
2017-09-13T02:59:18.996Z,12.7
2017-09-13T03:00:21.084Z,12.7
2017-09-13T03:01:23.452Z,12.8
2017-09-13T03:02:25.555Z,12.6
2017-09-13T03:03:27.748Z,12.7
2017-09-13T03:04:29.878Z,12.7
2017-09-13T03:05:32.414Z,12.6
2017-09-13T03:06:34.941Z,12.6
2017-09-13T03:07:37.026Z,12.6
2017-09-13T03:08:39.139Z,12.6
2017-09-13T03:09:41.304Z,12.6
2017-09-13T03:10:43.682Z,12.7
2017-09-13T03:11:46.094Z,12.7
2017-09-13T03:12:48.231Z,12.7
2017-09-13T03:13:50.388Z,12.7
2017-09-13T03:14:52.814Z,12.6
2017-09-13T03:15:54.980Z,12.7
2017-09-13T03:16:57.454Z,12.6
2017-09-13T03:17:59.584Z,12.6
2017-09-13T03:19:01.632Z,12.7
2017-09-13T03:20:03.694Z,12.7
2017-09-13T03:21:06.447Z,12.7
2017-09-13T03:22:08.777Z,12.7
2017-09-13T03:23:10.877Z,12.6
2017-09-13T03:24:12.944Z,12.7
2017-09-13T03:25:15.016Z,12.7
2017-09-13T03:26:17.146Z,12.8
2017-09-13T03:27:19.525Z,12.8
2017-09-13T03:28:21.624Z,12.7
2017-09-13T03:29:23.739Z,12.7
2017-09-13T03:30:25.828Z,12.7
2017-09-13T03:31:27.982Z,12.7
2017-09-13T03:32:30.653Z,12.7
2017-09-13T03:33:32.754Z,12.7
2017-09-13T03:34:34.958Z,12.7
2017-09-13T03:35:37.136Z,12.7
2017-09-13T03:36:39.235Z,12.8
2017-09-13T03:37:41.683Z,12.8
2017-09-13T03:38:43.828Z,12.9
2017-09-13T03:39:45.973Z,12.8
2017-09-13T03:40:48.088Z,12.7
2017-09-13T03:41:50.182Z,12.8
2017-09-13T03:42:52.541Z,12.8
2017-09-13T03:43:54.645Z,12.9
2017-09-13T03:44:56.745Z,12.9
2017-09-13T03:45:58.846Z,12.8
2017-09-13T03:47:00.905Z,12.8
2017-09-13T03:48:03.307Z,12.8
2017-09-13T03:49:05.413Z,12.9
2017-09-13T03:50:07.646Z,12.9
2017-09-13T03:51:09.758Z,12.9
2017-09-13T03:52:11.840Z,12.9
2017-09-13T03:53:14.282Z,12.9
2017-09-13T03:54:16.359Z,12.9
2017-09-13T03:55:18.416Z,12.8
2017-09-13T03:56:20.469Z,12.8
2017-09-13T03:57:22.588Z,12.8
2017-09-13T03:58:24.975Z,12.8
2017-09-13T03:59:27.124Z,12.8
2017-09-13T04:00:29.291Z,12.8
2017-09-13T04:01:31.567Z,12.8
2017-09-13T04:02:33.667Z,12.8
2017-09-13T04:03:36.142Z,12.9
2017-09-13T04:04:38.331Z,12.8
2017-09-13T04:05:40.461Z,12.8
2017-09-13T04:06:42.592Z,12.8
2017-09-13T04:07:44.742Z,12.7
2017-09-13T04:08:47.141Z,12.7
2017-09-13T04:09:49.236Z,12.7
2017-09-13T04:10:51.330Z,12.7
2017-09-13T04:11:53.424Z,12.6
2017-09-13T04:12:55.534Z,12.6
2017-09-13T04:13:57.958Z,12.7
2017-09-13T04:15:00.117Z,12.6
2017-09-13T04:16:02.183Z,12.5
2017-09-13T04:17:04.370Z,12.4
2017-09-13T04:18:06.577Z,12.4
2017-09-13T04:19:09.144Z,12.2
2017-09-13T04:20:11.320Z,12.2
2017-09-13T04:21:13.477Z,12.3
2017-09-13T04:22:15.602Z,12.3
2017-09-13T04:23:17.820Z,12.2
2017-09-13T04:24:20.407Z,12.2
2017-09-13T04:25:22.629Z,12.2
2017-09-13T04:26:24.769Z,12.2
2017-09-13T04:27:26.903Z,12.2
2017-09-13T04:28:29.033Z,12.3
2017-09-13T04:29:31.438Z,12.2
2017-09-13T04:30:33.524Z,12.2
2017-09-13T04:31:35.714Z,12.2
2017-09-13T04:32:37.844Z,12.2
2017-09-13T04:33:40.142Z,12.1
2017-09-13T04:34:42.584Z,12.1
2017-09-13T04:35:44.860Z,12.2
2017-09-13T04:36:47.008Z,12.1
2017-09-13T04:37:49.203Z,12.1
2017-09-13T04:38:51.332Z,12.1
2017-09-13T04:39:53.764Z,12.1
2017-09-13T04:40:55.896Z,12.1
2017-09-13T04:41:58.072Z,12.1
2017-09-13T04:43:00.150Z,12.1
2017-09-13T04:44:02.227Z,12.1
2017-09-13T04:45:04.619Z,12.1
2017-09-13T04:46:06.809Z,12
2017-09-13T04:47:08.922Z,12
2017-09-13T04:48:11.148Z,12
2017-09-13T04:49:13.303Z,12.1
2017-09-13T04:50:15.687Z,12.1
2017-09-13T04:51:17.777Z,12
2017-09-13T04:52:19.891Z,12.1
2017-09-13T04:53:21.977Z,12.1
2017-09-13T04:54:24.110Z,12
2017-09-13T04:55:26.473Z,12.1
2017-09-13T04:56:28.578Z,12.1
2017-09-13T04:57:30.721Z,12.1
2017-09-13T04:58:32.857Z,12.1
2017-09-13T04:59:35.119Z,12
2017-09-13T05:00:37.565Z,11.9
2017-09-13T05:01:39.738Z,11.9
2017-09-13T05:02:41.959Z,11.9
2017-09-13T05:03:44.157Z,11.9
2017-09-13T05:04:46.288Z,11.9
2017-09-13T05:05:48.775Z,11.9
2017-09-13T05:06:50.959Z,11.9
2017-09-13T05:07:53.036Z,11.9
2017-09-13T05:08:55.158Z,12
2017-09-13T05:09:57.297Z,12
2017-09-13T05:10:59.880Z,11.9
2017-09-13T05:12:02.113Z,11.9
2017-09-13T05:13:04.223Z,11.9
2017-09-13T05:14:06.391Z,12
2017-09-13T05:15:08.555Z,12
2017-09-13T05:16:11.114Z,11.9
2017-09-13T05:17:13.325Z,12
2017-09-13T05:18:15.448Z,12
2017-09-13T05:19:17.618Z,12.1
2017-09-13T05:20:19.763Z,12
2017-09-13T05:21:22.235Z,12
2017-09-13T05:22:24.316Z,12.1
2017-09-13T05:23:26.440Z,12
2017-09-13T05:24:28.492Z,12
2017-09-13T05:25:30.585Z,12
2017-09-13T05:26:33.264Z,12.1
2017-09-13T05:27:35.349Z,12.1
2017-09-13T05:28:37.490Z,12.1
2017-09-13T05:29:39.605Z,12.1
2017-09-13T05:30:41.691Z,12.1
2017-09-13T05:31:44.107Z,12.2
2017-09-13T05:32:46.397Z,12.3
2017-09-13T05:33:48.544Z,12.2
2017-09-13T05:34:50.888Z,12.1
2017-09-13T05:35:53.093Z,12.2
2017-09-13T05:36:55.700Z,12.2
2017-09-13T05:37:57.984Z,12.1
2017-09-13T05:39:00.191Z,12.1
2017-09-13T05:40:02.450Z,12.1
2017-09-13T05:41:04.652Z,12.2
2017-09-13T05:42:07.135Z,12.1
2017-09-13T05:43:09.305Z,12.2
2017-09-13T05:44:11.766Z,12.2
2017-09-13T05:45:13.913Z,12.2
2017-09-13T05:46:16.119Z,12.2
2017-09-13T05:47:18.612Z,12.2
2017-09-13T05:48:20.838Z,12.3
2017-09-13T05:49:22.997Z,12.3
2017-09-13T05:50:25.142Z,12.2
2017-09-13T05:51:27.243Z,12.2
2017-09-13T05:52:29.714Z,12.2
2017-09-13T05:53:31.828Z,12.2
2017-09-13T05:54:33.906Z,12.2
2017-09-13T05:55:36.070Z,12.2
2017-09-13T05:56:38.298Z,12.2
2017-09-13T05:57:40.729Z,12.1
2017-09-13T05:58:42.885Z,12.2
2017-09-13T05:59:44.923Z,12.2
2017-09-13T06:00:47.057Z,12.3
2017-09-13T06:01:49.177Z,12.3
2017-09-13T06:02:51.593Z,12.2
2017-09-13T06:03:53.772Z,12.2
2017-09-13T06:04:55.955Z,12.3
2017-09-13T06:05:58.132Z,12.2
2017-09-13T06:07:00.379Z,12.2
2017-09-13T06:08:02.918Z,12.3
2017-09-13T06:09:05.099Z,12.3
2017-09-13T06:10:07.323Z,12.3
2017-09-13T06:11:09.437Z,12.3
2017-09-13T06:12:11.537Z,12.3
2017-09-13T06:13:13.908Z,12.4
2017-09-13T06:14:15.977Z,12.4
2017-09-13T06:15:18.091Z,12.4
2017-09-13T06:16:20.232Z,12.4
2017-09-13T06:17:22.349Z,12.4
2017-09-13T06:18:24.795Z,12.4
2017-09-13T06:19:26.895Z,12.4
2017-09-13T06:20:29.053Z,12.3
2017-09-13T06:21:31.189Z,12.3
2017-09-13T06:22:33.306Z,12.4
2017-09-13T06:23:35.759Z,12.4
2017-09-13T06:24:37.819Z,12.3
2017-09-13T06:25:39.926Z,12.3
2017-09-13T06:26:42.053Z,12.3
2017-09-13T06:27:44.284Z,12.2
2017-09-13T06:28:46.808Z,12.2
2017-09-13T06:29:48.964Z,12.2
2017-09-13T06:30:51.063Z,12.3
2017-09-13T06:31:53.120Z,12.4
2017-09-13T06:32:55.190Z,12.3
2017-09-13T06:33:57.650Z,12.3
2017-09-13T06:34:59.752Z,12.3
2017-09-13T06:36:01.867Z,12.3
2017-09-13T06:37:04.000Z,12.2
2017-09-13T06:38:06.152Z,12.3
2017-09-13T06:39:08.534Z,12.2
2017-09-13T06:40:10.651Z,12.3
2017-09-13T06:41:12.746Z,12.2
2017-09-13T06:42:14.821Z,12.3
2017-09-13T06:43:16.868Z,12.3
2017-09-13T06:44:19.340Z,12.3
2017-09-13T06:45:21.459Z,12.3
2017-09-13T06:46:23.540Z,12.4
2017-09-13T06:47:25.661Z,12.3
2017-09-13T06:48:27.727Z,12.3
2017-09-13T06:49:30.079Z,12.4
2017-09-13T06:50:32.213Z,12.4
2017-09-13T06:51:34.331Z,12.4
2017-09-13T06:52:36.433Z,12.4
2017-09-13T06:53:38.523Z,12.4
2017-09-13T06:54:40.980Z,12.4
2017-09-13T06:55:43.053Z,12.4
2017-09-13T06:56:45.205Z,12.5
2017-09-13T06:57:47.687Z,12.4
2017-09-13T06:58:49.768Z,12.4
2017-09-13T06:59:52.200Z,12.4
2017-09-13T07:00:54.327Z,12.4
2017-09-13T07:01:56.416Z,12.4
2017-09-13T07:02:58.522Z,12.5
2017-09-13T07:04:00.605Z,12.4
2017-09-13T07:05:02.900Z,12.4
2017-09-13T07:06:04.966Z,12.5
2017-09-13T07:07:07.155Z,12.4
2017-09-13T07:08:09.348Z,12.6
2017-09-13T07:09:11.465Z,12.6
2017-09-13T07:10:13.877Z,12.6
2017-09-13T07:11:15.958Z,12.6
2017-09-13T07:12:18.034Z,12.5
2017-09-13T07:13:20.149Z,12.5
2017-09-13T07:14:22.233Z,12.6
2017-09-13T07:15:24.767Z,12.5
2017-09-13T07:16:26.892Z,12.5
2017-09-13T07:17:28.979Z,12.5
2017-09-13T07:18:31.135Z,12.6
2017-09-13T07:19:33.170Z,12.6
2017-09-13T07:20:35.784Z,12.7
2017-09-13T07:21:37.973Z,12.8
2017-09-13T07:22:40.261Z,12.6
2017-09-13T07:23:42.309Z,12.7
2017-09-13T07:24:44.451Z,12.8
2017-09-13T07:25:46.877Z,12.8
2017-09-13T07:26:48.981Z,12.9
2017-09-13T07:27:51.128Z,12.8
2017-09-13T07:28:53.270Z,12.9
2017-09-13T07:29:55.376Z,12.9
2017-09-13T07:30:57.741Z,12.9
2017-09-13T07:31:59.878Z,12.9
2017-09-13T07:33:02.035Z,12.8
2017-09-13T07:34:04.218Z,12.9
2017-09-13T07:35:06.347Z,12.7
2017-09-13T07:36:08.886Z,12.8
2017-09-13T07:37:10.987Z,12.8
2017-09-13T07:38:13.062Z,12.8
2017-09-13T07:39:15.123Z,12.9
2017-09-13T07:40:17.149Z,12.9
2017-09-13T07:41:19.514Z,12.9
2017-09-13T07:42:21.778Z,12.9
2017-09-13T07:43:23.976Z,12.9
2017-09-13T07:44:26.085Z,12.9
2017-09-13T07:45:28.146Z,12.9
2017-09-13T07:46:30.604Z,12.9
2017-09-13T07:47:32.776Z,12.9
2017-09-13T07:48:34.905Z,12.9
2017-09-13T07:49:37.008Z,12.9
2017-09-13T07:50:39.219Z,12.9
2017-09-13T07:51:41.742Z,13
2017-09-13T07:52:43.882Z,13.1
2017-09-13T07:53:46.038Z,13.1
2017-09-13T07:54:48.120Z,13.1
2017-09-13T07:55:50.220Z,13.3
2017-09-13T07:56:52.617Z,13.2
2017-09-13T07:57:54.788Z,13.1
2017-09-13T07:58:56.880Z,13.1
2017-09-13T07:59:58.985Z,13.1
2017-09-13T08:01:01.094Z,13.1
2017-09-13T08:02:03.546Z,13.1
2017-09-13T08:03:05.647Z,13.1
2017-09-13T08:04:07.756Z,13.1
2017-09-13T08:05:09.924Z,13.1
2017-09-13T08:06:12.059Z,13
2017-09-13T08:07:14.449Z,13
2017-09-13T08:08:16.594Z,12.9
2017-09-13T08:09:18.689Z,13
2017-09-13T08:10:20.773Z,13.1
2017-09-13T08:11:22.957Z,13.1
2017-09-13T08:12:25.290Z,13
2017-09-13T08:13:27.393Z,13
2017-09-13T08:14:29.461Z,13.1
2017-09-13T08:15:31.585Z,13
2017-09-13T08:16:33.682Z,13
2017-09-13T08:17:36.143Z,13
2017-09-13T08:18:38.234Z,13
2017-09-13T08:19:40.359Z,12.9
2017-09-13T08:20:42.497Z,13
2017-09-13T08:21:44.683Z,13.1
2017-09-13T08:22:47.163Z,13.1
2017-09-13T08:23:49.257Z,13.1
2017-09-13T08:24:51.381Z,12.9
2017-09-13T08:25:53.534Z,13.1
2017-09-13T08:26:55.686Z,13.4
2017-09-13T08:27:58.046Z,13.8
2017-09-13T08:29:00.155Z,13.4
2017-09-13T08:30:02.315Z,13.7
2017-09-13T08:31:04.483Z,13.8
2017-09-13T08:32:06.679Z,13.7
2017-09-13T08:33:09.315Z,14.1
2017-09-13T08:34:11.667Z,14.4
2017-09-13T08:35:14.069Z,14.4
2017-09-13T08:36:16.228Z,14.1
2017-09-13T08:37:18.319Z,14
2017-09-13T08:38:20.984Z,13.8
2017-09-13T08:39:23.075Z,13.8
2017-09-13T08:40:25.200Z,14.1
2017-09-13T08:41:27.301Z,14.3
2017-09-13T08:42:29.370Z,14.3
2017-09-13T08:43:31.806Z,14.2
2017-09-13T08:44:33.921Z,14.1
2017-09-13T08:45:36.009Z,14
2017-09-13T08:46:38.090Z,14
2017-09-13T08:47:40.146Z,13.9
2017-09-13T08:48:42.575Z,13.9
2017-09-13T08:49:44.665Z,13.8
2017-09-13T08:50:46.745Z,13.7
2017-09-13T08:51:48.880Z,13.7
2017-09-13T08:52:50.989Z,13.7
2017-09-13T08:53:53.389Z,13.7
2017-09-13T08:54:55.484Z,13.6
2017-09-13T08:55:57.643Z,13.6
2017-09-13T08:56:59.747Z,13.6
2017-09-13T08:58:01.853Z,13.7
2017-09-13T08:59:04.209Z,13.8
2017-09-13T09:00:06.317Z,13.6
2017-09-13T09:01:08.454Z,13.7
2017-09-13T09:02:10.577Z,13.9
2017-09-13T09:03:12.678Z,13.9
2017-09-13T09:04:15.047Z,13.6
2017-09-13T09:05:17.204Z,13.8
2017-09-13T09:06:19.309Z,13.6
2017-09-13T09:07:21.388Z,13.7
2017-09-13T09:08:23.545Z,13.9
2017-09-13T09:09:26.049Z,13.8
2017-09-13T09:10:28.123Z,13.8
2017-09-13T09:11:30.197Z,13.7
2017-09-13T09:12:32.427Z,13.9
2017-09-13T09:13:34.479Z,14
2017-09-13T09:14:36.856Z,14.3
2017-09-13T09:15:38.951Z,14.4
2017-09-13T09:16:41.039Z,14.8
2017-09-13T09:17:43.116Z,15
2017-09-13T09:18:45.250Z,15.5
2017-09-13T09:19:47.606Z,15.6
2017-09-13T09:20:49.721Z,15.6
2017-09-13T09:21:51.815Z,15.5
2017-09-13T09:22:53.927Z,15.1
2017-09-13T09:23:56.086Z,15.5
2017-09-13T09:24:58.517Z,15.9
2017-09-13T09:26:00.822Z,15.2
2017-09-13T09:27:02.872Z,15.6
2017-09-13T09:28:04.972Z,15
2017-09-13T09:29:07.069Z,15.1
2017-09-13T09:30:09.598Z,14.7
2017-09-13T09:31:11.650Z,14.6
2017-09-13T09:32:13.708Z,14.6
2017-09-13T09:33:15.819Z,14.7
2017-09-13T09:34:17.902Z,14.7
2017-09-13T09:35:20.347Z,14.8
2017-09-13T09:36:22.542Z,14.9
2017-09-13T09:37:24.666Z,14.7
2017-09-13T09:38:26.775Z,15.1
2017-09-13T09:39:29.037Z,14.7
2017-09-13T09:40:32.208Z,15
2017-09-13T09:41:34.337Z,15.5
2017-09-13T09:42:36.574Z,15.2
2017-09-13T09:43:38.699Z,15.3
2017-09-13T09:44:40.845Z,15.5
2017-09-13T09:45:43.312Z,15.2
2017-09-13T09:46:45.429Z,15.1
2017-09-13T09:47:47.525Z,15.5
2017-09-13T09:48:49.705Z,15.7
2017-09-13T09:49:51.856Z,16.8
2017-09-13T09:50:54.226Z,17.4
2017-09-13T09:51:56.313Z,18.1
2017-09-13T09:52:58.482Z,19.4
2017-09-13T09:54:00.698Z,20
2017-09-13T09:55:02.808Z,20.7
2017-09-13T09:56:05.222Z,20.5
2017-09-13T09:57:07.333Z,21.3
2017-09-13T09:58:09.502Z,21.3
2017-09-13T09:59:11.637Z,21
2017-09-13T10:00:13.760Z,21.1
2017-09-13T10:01:16.150Z,21.5
2017-09-13T10:02:18.233Z,20.7
2017-09-13T10:03:20.353Z,21.5
2017-09-13T10:04:22.498Z,21
2017-09-13T10:05:24.627Z,20.4
2017-09-13T10:06:27.171Z,19.9
2017-09-13T10:07:29.244Z,18.7
2017-09-13T10:08:31.350Z,18.3
2017-09-13T10:09:33.463Z,18.2
2017-09-13T10:10:35.552Z,18.2
2017-09-13T10:11:38.004Z,18.4
2017-09-13T10:12:40.161Z,18.6
2017-09-13T10:13:42.368Z,18.5
2017-09-13T10:14:44.466Z,18.5
2017-09-13T10:15:46.599Z,18.5
2017-09-13T10:16:49.101Z,18.9
2017-09-13T10:17:51.199Z,18.9
2017-09-13T10:18:53.292Z,18.9
2017-09-13T10:19:55.445Z,19.1
2017-09-13T10:20:57.542Z,19.2
2017-09-13T10:22:00.014Z,18.4
2017-09-13T10:23:02.154Z,17.7
2017-09-13T10:24:04.261Z,17.6
2017-09-13T10:25:06.443Z,17.3
2017-09-13T10:26:08.660Z,17.4
2017-09-13T10:27:11.126Z,17.3
2017-09-13T10:28:13.231Z,17.8
2017-09-13T10:29:15.337Z,17.9
2017-09-13T10:30:17.497Z,17.9
2017-09-13T10:31:20.553Z,17.8
2017-09-13T10:32:22.952Z,17.7
2017-09-13T10:33:25.225Z,17.7
2017-09-13T10:34:27.339Z,17.4
2017-09-13T10:35:29.462Z,17.4
2017-09-13T10:36:31.682Z,17.6
2017-09-13T10:37:34.129Z,17.6
2017-09-13T10:38:36.297Z,17.4
2017-09-13T10:39:38.406Z,17.5
2017-09-13T10:40:40.522Z,17.4
2017-09-13T10:41:42.693Z,17.2
2017-09-13T10:42:45.248Z,17.1
2017-09-13T10:43:47.471Z,17
2017-09-13T10:44:49.564Z,17
2017-09-13T10:45:51.636Z,17.1
2017-09-13T10:46:53.747Z,16.9
2017-09-13T10:47:56.149Z,16.8
2017-09-13T10:48:58.291Z,16.7
2017-09-13T10:50:00.440Z,16.7
2017-09-13T10:51:02.497Z,16.8
2017-09-13T10:52:04.622Z,17
2017-09-13T10:53:07.090Z,17
2017-09-13T10:54:09.179Z,16.9
2017-09-13T10:55:11.280Z,17
2017-09-13T10:56:13.377Z,16.9
2017-09-13T10:57:15.432Z,16.6
2017-09-13T10:58:17.900Z,16.7
2017-09-13T10:59:19.962Z,16.7
2017-09-13T11:00:22.179Z,16.8
2017-09-13T11:01:24.355Z,16.5
2017-09-13T11:02:26.423Z,16.5
2017-09-13T11:03:28.874Z,16.4
2017-09-13T11:04:31.042Z,16.4
2017-09-13T11:05:33.216Z,16.4
2017-09-13T11:06:35.304Z,16.4
2017-09-13T11:07:37.436Z,16.4
2017-09-13T11:08:39.877Z,16.5
2017-09-13T11:09:42.017Z,16.4
2017-09-13T11:10:44.185Z,16.4
2017-09-13T11:11:46.336Z,16.4
2017-09-13T11:12:48.382Z,16.4
2017-09-13T11:13:50.848Z,16.4
2017-09-13T11:14:52.930Z,16.5
2017-09-13T11:15:55.060Z,16.4
2017-09-13T11:16:57.218Z,16.4
2017-09-13T11:17:59.291Z,16.3
2017-09-13T11:19:02.062Z,16.5
2017-09-13T11:20:04.158Z,16.6
2017-09-13T11:21:06.257Z,16.6
2017-09-13T11:22:08.396Z,16.5
2017-09-13T11:23:10.509Z,16.5
2017-09-13T11:24:12.969Z,16.3
2017-09-13T11:25:15.148Z,16.4
2017-09-13T11:26:17.282Z,16.5
2017-09-13T11:27:19.363Z,16.5
2017-09-13T11:28:21.521Z,16.6
2017-09-13T11:29:23.920Z,16.6
2017-09-13T11:30:26.076Z,16.7
2017-09-13T11:31:28.160Z,16.8
2017-09-13T11:32:30.269Z,16.7
2017-09-13T11:33:32.382Z,16.8
2017-09-13T11:34:34.926Z,16.7
2017-09-13T11:35:37.010Z,16.7
2017-09-13T11:36:39.175Z,16.7
2017-09-13T11:37:41.334Z,16.7
2017-09-13T11:38:43.451Z,16.8
2017-09-13T11:39:45.875Z,16.9
2017-09-13T11:40:48.018Z,17
2017-09-13T11:41:50.148Z,17
2017-09-13T11:42:52.269Z,17
2017-09-13T11:43:54.379Z,17.1
2017-09-13T11:44:56.775Z,17.2
2017-09-13T11:45:58.921Z,17.3
2017-09-13T11:47:01.062Z,17.4
2017-09-13T11:48:03.186Z,17.6
2017-09-13T11:49:05.271Z,17.5
2017-09-13T11:50:07.693Z,17.7
2017-09-13T11:51:09.850Z,17.9
2017-09-13T11:52:11.952Z,17.7
2017-09-13T11:53:14.014Z,17.7
2017-09-13T11:54:16.090Z,17.8
2017-09-13T11:55:18.564Z,17.9
2017-09-13T11:56:20.675Z,17.9
2017-09-13T11:57:22.726Z,17.9
2017-09-13T11:58:24.808Z,17.8
2017-09-13T11:59:26.923Z,17.8
2017-09-13T12:00:29.454Z,17.6
2017-09-13T12:01:31.664Z,17.6
2017-09-13T12:02:33.832Z,17.7
2017-09-13T12:03:36.085Z,17.5
2017-09-13T12:04:38.209Z,17.8
2017-09-13T12:05:40.658Z,18
2017-09-13T12:06:42.702Z,18.1
2017-09-13T12:07:44.818Z,18
2017-09-13T12:08:46.927Z,17.9
2017-09-13T12:09:49.111Z,18.1
2017-09-13T12:10:51.590Z,18.5
2017-09-13T12:11:53.656Z,18.9
2017-09-13T12:12:55.821Z,19.1
2017-09-13T12:13:57.943Z,19.1
2017-09-13T12:15:00.100Z,19
2017-09-13T12:16:02.599Z,19.2
2017-09-13T12:17:04.697Z,19.3
2017-09-13T12:18:06.861Z,19.3
2017-09-13T12:19:08.952Z,19.4
2017-09-13T12:20:11.088Z,19.3
2017-09-13T12:21:13.551Z,19.2
2017-09-13T12:22:15.658Z,19.4
2017-09-13T12:23:17.775Z,19.4
2017-09-13T12:24:19.882Z,19.4
2017-09-13T12:25:22.009Z,19.5
2017-09-13T12:26:24.414Z,19.5
2017-09-13T12:27:26.549Z,19.6
2017-09-13T12:28:28.658Z,19.6
2017-09-13T12:29:30.788Z,19.5
2017-09-13T12:30:32.902Z,19.8
2017-09-13T12:31:35.327Z,19.8
2017-09-13T12:32:37.426Z,19.8
2017-09-13T12:33:39.525Z,19.6
2017-09-13T12:34:41.633Z,19.7
2017-09-13T12:35:43.720Z,19.6
2017-09-13T12:36:46.153Z,19.4
2017-09-13T12:37:48.353Z,19.5
2017-09-13T12:38:50.453Z,19.5
2017-09-13T12:39:52.602Z,19.5
2017-09-13T12:40:54.778Z,19.3
2017-09-13T12:41:57.497Z,19.3
2017-09-13T12:42:59.602Z,19.5
2017-09-13T12:44:01.687Z,19.7
2017-09-13T12:45:03.882Z,19.7
2017-09-13T12:46:05.961Z,19.9
2017-09-13T12:47:08.484Z,19.8
2017-09-13T12:48:10.604Z,19.8
2017-09-13T12:49:12.748Z,20
2017-09-13T12:50:14.879Z,20.1
2017-09-13T12:51:16.990Z,19.9
2017-09-13T12:52:19.370Z,20.2
2017-09-13T12:53:21.493Z,20
2017-09-13T12:54:23.601Z,20
2017-09-13T12:55:25.707Z,20
2017-09-13T12:56:27.774Z,19.9
2017-09-13T12:57:30.178Z,20.1
2017-09-13T12:58:32.300Z,20
2017-09-13T12:59:34.364Z,20.1
2017-09-13T13:00:36.470Z,20.2
2017-09-13T13:01:38.563Z,20
2017-09-13T13:02:41.146Z,20
2017-09-13T13:03:43.236Z,20
2017-09-13T13:04:45.326Z,19.9
2017-09-13T13:05:47.464Z,19.8
2017-09-13T13:06:49.592Z,20
2017-09-13T13:07:51.978Z,19.9
2017-09-13T13:08:54.021Z,20
2017-09-13T13:09:56.100Z,19.9
2017-09-13T13:10:58.128Z,20
2017-09-13T13:12:00.163Z,20
2017-09-13T13:13:02.919Z,20
2017-09-13T13:14:05.107Z,20.1
2017-09-13T13:15:07.269Z,20.1
2017-09-13T13:16:09.330Z,19.7
2017-09-13T13:17:11.359Z,19.6
2017-09-13T13:18:13.787Z,19.5
2017-09-13T13:19:15.899Z,19.5
2017-09-13T13:20:17.988Z,19.7
2017-09-13T13:21:20.102Z,19.5
2017-09-13T13:22:22.191Z,19.6
2017-09-13T13:23:24.572Z,19.7
2017-09-13T13:24:26.696Z,19.8
2017-09-13T13:25:28.795Z,19.8
2017-09-13T13:26:31.286Z,19.9
2017-09-13T13:27:33.439Z,19.9
2017-09-13T13:28:35.908Z,19.8
2017-09-13T13:29:38.049Z,20
2017-09-13T13:30:40.197Z,20
2017-09-13T13:31:42.262Z,19.8
2017-09-13T13:32:44.336Z,19.5
2017-09-13T13:33:46.817Z,19.7
2017-09-13T13:34:49.081Z,19.9
2017-09-13T13:35:51.186Z,20.2
2017-09-13T13:36:53.294Z,20.1
2017-09-13T13:37:55.367Z,19.9
2017-09-13T13:38:57.753Z,19.6
2017-09-13T13:40:00.054Z,19.7
2017-09-13T13:41:02.594Z,19.7
2017-09-13T13:42:04.920Z,19.7
2017-09-13T13:43:07.087Z,19.6
2017-09-13T13:44:09.629Z,19.7
2017-09-13T13:45:11.799Z,19.6
2017-09-13T13:46:13.893Z,19.4
2017-09-13T13:47:15.984Z,19.5
2017-09-13T13:48:18.058Z,19.3
2017-09-13T13:49:20.558Z,19.2
2017-09-13T13:50:22.630Z,19.3
2017-09-13T13:51:24.678Z,19.4
2017-09-13T13:52:27.702Z,19.6
2017-09-13T13:53:29.787Z,19.5
2017-09-13T13:54:32.210Z,19.1